• Join FlightAware (Why Join?)
  • Login
  • US Flag 
Rudolph Flight #1: Arrived! 
11:55AM EST


 

Airport Tracker/Info


-or-


 

Live Flight TrackerFlight Track Log ✈ CES5800 ✈ 03-Nov-2013 ✈ ZYTL / DLC - ZHLY / LYA

Flight Track Log - Related Links

Times and Time Zones

All times are in EST time to prevent confusion due to time zone crossing. See the CES5800 flight status page for this flight to view local times or setup timezone preferences in your user account.

Time Position Orientation Groundspeed Altitude Reporting Facility
EST Latitude Longitude Course Direction KTS MPH feet Rate Location/Type
03:35AM 37.7905 118.7257 243° Southwest  Level Estimated
03:36AM 37.7488 118.6304 241° Southwest  Level Estimated
03:37AM 37.7070 118.5351 241° Southwest  Level Estimated
03:38AM 37.6651 118.4399 241° Southwest  Level Estimated
03:39AM 37.6232 118.3449 241° Southwest  Level Estimated
03:40AM 37.5812 118.2499 241° Southwest  Level Estimated
03:41AM 37.5391 118.1551 241° Southwest  Level Estimated
03:42AM 37.4969 118.0604 241° Southwest  Level Estimated
03:43AM 37.4547 117.9658 241° Southwest  Level Estimated
03:44AM 37.4124 117.8713 241° Southwest  Level Estimated
03:45AM 37.3700 117.7768 241° Southwest  Level Estimated
03:46AM 37.3275 117.6825 240° Southwest  Level Estimated
03:47AM 37.2850 117.5884 240° Southwest  Level Estimated
03:48AM 37.2424 117.4943 240° Southwest  Level Estimated
03:49AM 37.1997 117.4003 240° Southwest  Level Estimated
03:50AM 37.1569 117.3064 240° Southwest  Level Estimated
03:51AM 37.1141 117.2126 240° Southwest  Level Estimated
03:52AM 37.0712 117.1190 240° Southwest  Level Estimated
03:53AM 37.0282 117.0254 240° Southwest  Level Estimated
03:54AM 36.9851 116.9320 240° Southwest  Level Estimated
03:55AM 36.9420 116.8387 240° Southwest  Level Estimated
03:56AM 36.8988 116.7454 240° Southwest  Level Estimated
03:57AM 36.8555 116.6523 240° Southwest  Level Estimated
03:58AM 36.8122 116.5592 240° Southwest  Level Estimated
03:59AM 36.7688 116.4663 240° Southwest  Level Estimated
04:00AM 36.7253 116.3735 240° Southwest  Level Estimated
04:01AM 36.6817 116.2808 240° Southwest  Level Estimated
04:02AM 36.6381 116.1882 240° Southwest  Level Estimated
04:03AM 36.5944 116.0957 240° Southwest  Level Estimated
04:04AM 36.5506 116.0033 239° Southwest  Level Estimated
04:05AM 36.5067 115.9110 239° Southwest  Level Estimated
04:06AM 36.4628 115.8188 239° Southwest  Level Estimated
04:07AM 36.4188 115.7267 239° Southwest  Level Estimated
04:08AM 36.3748 115.6348 239° Southwest  Level Estimated
04:09AM 36.3306 115.5429 239° Southwest  Level Estimated
04:10AM 36.2864 115.4511 239° Southwest  Level Estimated
04:11AM 36.2422 115.3594 239° Southwest  Level Estimated
04:12AM 36.1978 115.2679 239° Southwest  Level Estimated
04:13AM 36.1534 115.1764 239° Southwest  Level Estimated
04:14AM 36.1089 115.0851 239° Southwest  Level Estimated
04:15AM 36.0644 114.9938 239° Southwest  Level Estimated
04:16AM 36.0198 114.9027 239° Southwest  Level Estimated
04:17AM 35.9751 114.8116 239° Southwest  Level Estimated
04:18AM 35.9303 114.7207 239° Southwest  Level Estimated
04:19AM 35.8855 114.6299 239° Southwest  Level Estimated
04:20AM 35.8406 114.5391 239° Southwest  Level Estimated
04:21AM 35.7956 114.4485 239° Southwest  Level Estimated
04:22AM 35.7506 114.3580 239° Southwest  Level Estimated
04:23AM 35.7055 114.2675 238° Southwest  Level Estimated
04:24AM 35.6603 114.1772 238° Southwest  Level Estimated
04:25AM 35.6151 114.0870 238° Southwest  Level Estimated
04:26AM 35.5698 113.9969 238° Southwest  Level Estimated
04:27AM 35.5244 113.9069 238° Southwest  Level Estimated
04:28AM 35.4790 113.8169 238° Southwest  Level Estimated
04:29AM 35.4335 113.7271 238° Southwest  Level Estimated
04:30AM 35.3879 113.6374 238° Southwest  Level Estimated
04:31AM 35.3423 113.5478 238° Southwest  Level Estimated
04:32AM 35.2966 113.4583 238° Southwest  Level Estimated
04:33AM 35.2508 113.3689 238° Southwest  Level Estimated
04:34AM 35.2049 113.2796 238° Southwest  Level Estimated
04:35AM 35.1590 113.1904 238° Southwest  Level Estimated
04:36AM 35.1131 113.1012 238° Southwest  Level Estimated
04:37AM 35.0671 113.0122 238° Southwest  Level Estimated
04:38AM 35.0210 112.9233 238° Southwest  Level Estimated
04:39AM 34.9748 112.8345 238° Southwest  Level Estimated
04:40AM 34.9286 112.7458 238° Southwest  Level Estimated
04:41AM 34.8787 112.6504 238° Southwest  Level Estimated
04:42AM 34.8288 112.5551 237° Southwest  Level Estimated
04:43AM 34.7788 112.4599 237° Southwest  Level Estimated
04:44AM 34.7411 112.3883 237° Southwest  Level Estimated
04:45AM 34.7411 112.3883 68° East  Level Estimated
04:46AM 34.7411 112.3883 68° East  Level Estimated
04:47AM 34.7411 112.3883 68° East  Level Estimated
04:48AM 34.7411 112.3883 68° East  Level Estimated
04:49AM 34.7411 112.3883 68° East  Level Estimated
04:50AM 34.7411 112.3883 68° East  Level Estimated
04:51AM 34.7411 112.3883 68° East  Level Estimated
04:52AM 34.7411 112.3883 68° East  Level Estimated
04:53AM 34.7411 112.3883 68° East  Level Estimated